Список аэропортов
Фактическая погода:

26 апреля, 11:55
Температура: +11°C (+7.7*)
Ветер: западный 9 м/с
Давление: *760 мм
неб. облачность
540 м
Время (МСК)Темп. СВетерВлажностьДавлениеОблачностьОсадки
09:00+9З, 7 м/с81%1013 гПамалооблачно
10:00+10З, 8 м/с75%1013 гПас прояснениями
11:00+10З, 8 м/с76%1014 гПаоблачнодождь
12:00+10З, 9 м/с75%1015 гПаоблачнодождь
13:00+11З, 8 м/с73%1015 гПаоблачно
14:00+11З, 8 м/с71%1016 гПаоблачно
15:00+11З, 9 м/с70%1016 гПас прояснениямисл. дождь
16:00+12З, 9 м/с68%1016 гПас прояснениямисл. дождь
17:00+11З, 9 м/с64%1017 гПаоблачно
18:00+11ЮЗ, 8 м/с62%1016 гПаоблачно
19:00+11ЮЗ, 8 м/с60%1016 гПамалооблачно
20:00+11ЮЗ, 8 м/с59%1016 гПас прояснениями
21:00+11ЮЗ, 7 м/с60%1016 гПаоблачно
22:00+10ЮЗ, 7 м/с69%1016 гПаоблачно
23:00+10ЮЗ, 6 м/с74%1016 гПаоблачно
27 апреля
00:00+10ЮЗ, 5 м/с76%1016 гПаоблачно
01:00+9ЮЗ, 5 м/с82%1016 гПаоблачно
02:00+8ЮЗ, 4 м/с88%1015 гПас прояснениями
03:00+8ЮЗ, 3 м/с92%1015 гПас прояснениями
04:00+7Ю, 3 м/с95%1015 гПас прояснениями
05:00+6Ю, 3 м/с96%1014 гПаоблачно
06:00+6Ю, 2 м/с94%1013 гПаоблачно
07:00+6ЮВ, 2 м/с95%1013 гПаоблачно
08:00+6ЮВ, 3 м/с95%1013 гПаоблачно
09:00+7ЮВ, 2 м/с85%1013 гПаоблачно
10:00+9Ю, 3 м/с73%1013 гПаоблачно
11:00+11ЮВ, 5 м/с61%1012 гПаоблачно
12:00+12ЮВ, 6 м/с56%1012 гПаоблачно
13:00+14ЮВ, 6 м/с52%1011 гПаясно
14:00+15Ю, 6 м/с50%1010 гПас прояснениями
15:00+16Ю, 7 м/с47%1009 гПаоблачно
16:00+17Ю, 7 м/с46%1008 гПаоблачно
17:00+17Ю, 7 м/с44%1007 гПаоблачно
18:00+18Ю, 7 м/с42%1006 гПаоблачно
19:00+18Ю, 6 м/с42%1006 гПаоблачно
20:00+18Ю, 5 м/с41%1005 гПаоблачно
21:00+18Ю, 3 м/с44%1004 гПаоблачно
22:00+16ЮЗ, 7 м/с48%1005 гПаоблачно
23:00+13З, 7 м/с48%1006 гПаоблачносл. дождь
28 апреля
00:00+13З, 3 м/с59%1006 гПаоблачнодождь
01:00+12ЮЗ, 2 м/с68%1006 гПаоблачно
02:00+12Ю, 2 м/с70%1005 гПаоблачносл. дождь
03:00+12Ю, 4 м/с72%1005 гПаоблачно
04:00+12Ю, 5 м/с76%1005 гПамалооблачносл. дождь
05:00+11ЮЗ, 6 м/с66%1005 гПаясно
06:00+11Ю, 7 м/с56%1005 гПаясно
07:00+11Ю, 8 м/с55%1006 гПас прояснениями
08:00+11Ю, 9 м/с56%1006 гПаоблачно
09:00+11ЮЗ, 10 м/с58%1006 гПаоблачно